Fischer Private, ND

1:02 PM CST on January 22, 2017 (GMT -0600)
Olson Farm | | Change Station

Elev 2008 ft 47.77 °N, 101.17 °W | Updated 36 seconds ago

Overcast
Overcast
31.3 °F
Feels Like 25 °F
N
6.7
Wind Variable Wind from WSW
Gusts 9.8 mph

Today
High -- | Low -- °F
--% Chance of Precip.
Yesterday
High -- | Low -- °F
Precip. -- in
Pressure 29.81 in
Visibility 8.0 miles
Clouds Overcast 1000 ft
Windchill 25 °F
Dew Point 25 °F
Humidity 77%
Rainfall 0.00 in
Snow Depth Not available.
8:24 AM 5:32 PM
Waning Crescent, 24% visible
METAR KMOT 221854Z 27009KT 8SM OVC010 01/M01 A2975 RMK AO2 CIG 007V016 SLP093 T00061011
Pressure 29.81 in
Visibility 8.0 miles
Clouds Overcast 1000 ft
Windchill 25 °F
Dew Point 25 °F
Humidity 77%
Rainfall 0.00 in
Snow Depth Not available.
8:24 AM 5:32 PM
Waning Crescent, 24% visible
METAR KMOT 221854Z 27009KT 8SM OVC010 01/M01 A2975 RMK AO2 CIG 007V016 SLP093 T00061011

Get Your Daily Forecast Email!

Thanks for signing up!

Be on the lookout for a verification email in your inbox.

You'll start receiving the daily forecast at 8 AM.

×

10-Day Weather Forecast

Almanac

Astronomy

Jan. 22, 2017 Rise Set
Actual Time
Civil Twilight
Nautical Twilight
Astronomical Twilight
Moon
Length of Visible Light
Length of Day
Tomorrow will be .
, % of the Moon is Illuminated

Today's Extremes

State Highs State Lows

Community

WunderPhotos

Upload Photos

1,962,540 photos uploaded!

WunderBlog® & News

Nearby

Air Quality

  Air Quality AQ Index Pollutant
Not available.

Snow Depth

Station Depth Elevation

Earthquake Activity

City Distance Mag. Time & Date
Minimum magnitude displayed is 2.5.

Coastal Water Temperatures

Place Temperature

Stations

Nearby Weather Stations

Station Location Temp. Windchill Dew Point Humidity Wind Precip. Elev Updated Type
                   

Watches & Warnings

There are currently no watches in effect.